25°C Temp
3°C Dewpoint
24% Humidity
Temperature
21 KM/H
13 MPH
11 KTS
310°
North West

Wind Speed
Clear
Conditions
Pressure 1007.92 (hPa) - 29.76 (in)
Visibility 6.2 (mi) - 10.0 (km)

Current Conditions
SAEZ
Location 120km(km)
Metar :SAEZ 071500Z 31011G21KT CAVOK 25/03 Q1008 NOSIG RMK PP000
Fri 7th October 12:00 pm

Airport
  Metar Aviation API Data Provided by https://www.checkwx.com/ PHP scripts by weather34.com ©2022